sensor_id;sensor_type;location;lat;lon;timestamp;P1;durP1;ratioP1;P2;durP2;ratioP2
5807;SDS011;2930;42.678;23.312;2023-07-31T07:50:26;9.65;;;6.72;;
5807;SDS011;2930;42.678;23.312;2023-07-31T07:52:52;1.23;;;1.20;;
5807;SDS011;2930;42.678;23.312;2023-07-31T07:55:18;1.10;;;1.10;;
5807;SDS011;2930;42.678;23.312;2023-07-31T07:57:43;1.08;;;0.93;;
5807;SDS011;2930;42.678;23.312;2023-07-31T08:00:10;0.90;;;0.90;;
5807;SDS011;2930;42.678;23.312;2023-07-31T08:02:37;1.08;;;1.08;;
5807;SDS011;2930;42.678;23.312;2023-07-31T08:05:02;0.90;;;0.90;;
5807;SDS011;2930;42.678;23.312;2023-07-31T08:07:28;1.30;;;1.30;;
5807;SDS011;2930;42.678;23.312;2023-07-31T08:09:54;1.15;;;1.15;;
5807;SDS011;2930;42.678;23.312;2023-07-31T08:12:19;1.25;;;1.25;;
5807;SDS011;2930;42.678;23.312;2023-07-31T08:14:45;1.25;;;0.90;;
5807;SDS011;2930;42.678;23.312;2023-07-31T08:17:11;1.23;;;1.13;;
5807;SDS011;2930;42.678;23.312;2023-07-31T08:19:36;1.08;;;1.08;;
5807;SDS011;2930;42.678;23.312;2023-07-31T08:22:02;1.52;;;1.30;;
5807;SDS011;2930;42.678;23.312;2023-07-31T08:24:28;1.42;;;1.42;;
5807;SDS011;2930;42.678;23.312;2023-07-31T08:26:54;1.10;;;1.10;;
5807;SDS011;2930;42.678;23.312;2023-07-31T08:29:19;1.17;;;1.17;;
5807;SDS011;2930;42.678;23.312;2023-07-31T08:31:45;1.20;;;1.20;;
5807;SDS011;2930;42.678;23.312;2023-07-31T08:34:11;1.10;;;1.10;;
5807;SDS011;2930;42.678;23.312;2023-07-31T08:36:36;1.45;;;1.45;;
5807;SDS011;2930;42.678;23.312;2023-07-31T08:39:02;1.25;;;1.25;;
5807;SDS011;2930;42.678;23.312;2023-07-31T08:41:28;1.40;;;1.27;;
5807;SDS011;2930;42.678;23.312;2023-07-31T08:43:54;1.13;;;1.13;;
5807;SDS011;2930;42.678;23.312;2023-07-31T08:46:21;0.98;;;0.98;;
5807;SDS011;2930;42.678;23.312;2023-07-31T08:48:47;1.30;;;1.30;;
5807;SDS011;2930;42.678;23.312;2023-07-31T08:51:14;1.30;;;1.30;;
5807;SDS011;2930;42.678;23.312;2023-07-31T08:53:40;1.73;;;1.30;;
5807;SDS011;2930;42.678;23.312;2023-07-31T08:56:06;1.05;;;1.05;;
5807;SDS011;2930;42.678;23.312;2023-07-31T08:58:32;1.35;;;1.27;;
5807;SDS011;2930;42.678;23.312;2023-07-31T09:01:00;1.20;;;1.20;;
5807;SDS011;2930;42.678;23.312;2023-07-31T09:03:28;1.50;;;1.45;;
5807;SDS011;2930;42.678;23.312;2023-07-31T09:05:58;2.80;;;1.30;;
5807;SDS011;2930;42.678;23.312;2023-07-31T09:08:24;1.38;;;1.27;;
5807;SDS011;2930;42.678;23.312;2023-07-31T09:10:54;0.90;;;0.90;;
5807;SDS011;2930;42.678;23.312;2023-07-31T09:13:26;1.00;;;1.00;;
5807;SDS011;2930;42.678;23.312;2023-07-31T09:15:53;0.98;;;0.98;;
5807;SDS011;2930;42.678;23.312;2023-07-31T09:18:19;1.00;;;1.00;;
5807;SDS011;2930;42.678;23.312;2023-07-31T09:20:59;1.23;;;1.23;;
5807;SDS011;2930;42.678;23.312;2023-07-31T09:23:27;1.25;;;1.25;;
5807;SDS011;2930;42.678;23.312;2023-07-31T09:26:06;2.70;;;1.50;;
5807;SDS011;2930;42.678;23.312;2023-07-31T09:28:33;1.50;;;1.50;;
5807;SDS011;2930;42.678;23.312;2023-07-31T09:30:58;1.63;;;1.40;;
5807;SDS011;2930;42.678;23.312;2023-07-31T09:33:24;1.00;;;0.93;;
5807;SDS011;2930;42.678;23.312;2023-07-31T09:35:50;0.90;;;0.85;;
5807;SDS011;2930;42.678;23.312;2023-07-31T09:38:16;1.42;;;1.42;;
5807;SDS011;2930;42.678;23.312;2023-07-31T09:40:45;1.30;;;1.30;;
5807;SDS011;2930;42.678;23.312;2023-07-31T09:43:13;1.10;;;1.10;;
5807;SDS011;2930;42.678;23.312;2023-07-31T09:45:43;1.92;;;1.30;;
5807;SDS011;2930;42.678;23.312;2023-07-31T09:48:19;1.52;;;1.23;;
5807;SDS011;2930;42.678;23.312;2023-07-31T09:50:45;2.30;;;1.23;;
5807;SDS011;2930;42.678;23.312;2023-07-31T09:53:17;1.38;;;1.33;;
5807;SDS011;2930;42.678;23.312;2023-07-31T09:55:43;1.10;;;1.10;;
5807;SDS011;2930;42.678;23.312;2023-07-31T09:58:09;1.38;;;1.33;;
5807;SDS011;2930;42.678;23.312;2023-07-31T10:00:37;1.50;;;1.38;;
5807;SDS011;2930;42.678;23.312;2023-07-31T10:03:08;1.05;;;1.05;;
5807;SDS011;2930;42.678;23.312;2023-07-31T10:08:13;2.30;;;1.00;;
5807;SDS011;2930;42.678;23.312;2023-07-31T10:10:43;1.23;;;1.13;;
5807;SDS011;2930;42.678;23.312;2023-07-31T10:13:10;1.02;;;1.02;;
5807;SDS011;2930;42.678;23.312;2023-07-31T10:15:40;1.42;;;0.90;;
5807;SDS011;2930;42.678;23.312;2023-07-31T10:18:08;1.00;;;1.00;;
5807;SDS011;2930;42.678;23.312;2023-07-31T10:20:34;4.20;;;1.10;;
5807;SDS011;2930;42.678;23.312;2023-07-31T10:23:01;0.82;;;0.82;;
5807;SDS011;2930;42.678;23.312;2023-07-31T10:25:27;1.10;;;1.00;;
5807;SDS011;2930;42.678;23.312;2023-07-31T10:27:54;0.93;;;0.88;;
5807;SDS011;2930;42.678;23.312;2023-07-31T10:30:20;0.93;;;0.90;;
5807;SDS011;2930;42.678;23.312;2023-07-31T10:32:50;3.13;;;1.00;;
5807;SDS011;2930;42.678;23.312;2023-07-31T10:35:17;0.88;;;0.88;;
5807;SDS011;2930;42.678;23.312;2023-07-31T10:37:50;1.00;;;1.00;;
5807;SDS011;2930;42.678;23.312;2023-07-31T10:40:17;0.90;;;0.90;;
5807;SDS011;2930;42.678;23.312;2023-07-31T10:45:36;0.70;;;0.70;;
5807;SDS011;2930;42.678;23.312;2023-07-31T10:50:31;0.70;;;0.70;;
5807;SDS011;2930;42.678;23.312;2023-07-31T10:52:58;0.68;;;0.68;;
5807;SDS011;2930;42.678;23.312;2023-07-31T10:55:29;3.00;;;0.57;;
5807;SDS011;2930;42.678;23.312;2023-07-31T10:58:11;1.30;;;0.90;;
5807;SDS011;2930;42.678;23.312;2023-07-31T11:00:38;0.80;;;0.80;;
5807;SDS011;2930;42.678;23.312;2023-07-31T11:13:47;0.60;;;0.60;;
5807;SDS011;2930;42.678;23.312;2023-07-31T11:16:20;0.70;;;0.70;;
5807;SDS011;2930;42.678;23.312;2023-07-31T11:18:47;0.85;;;0.85;;
5807;SDS011;2930;42.678;23.312;2023-07-31T11:23:40;0.57;;;0.57;;
5807;SDS011;2930;42.678;23.312;2023-07-31T11:26:06;0.80;;;0.80;;
5807;SDS011;2930;42.678;23.312;2023-07-31T11:28:33;0.57;;;0.57;;
5807;SDS011;2930;42.678;23.312;2023-07-31T11:31:00;0.50;;;0.50;;
5807;SDS011;2930;42.678;23.312;2023-07-31T11:33:26;0.65;;;0.65;;
5807;SDS011;2930;42.678;23.312;2023-07-31T11:35:52;1.08;;;0.60;;
5807;SDS011;2930;42.678;23.312;2023-07-31T11:38:27;0.55;;;0.55;;
5807;SDS011;2930;42.678;23.312;2023-07-31T11:40:55;1.00;;;1.00;;
5807;SDS011;2930;42.678;23.312;2023-07-31T11:43:28;1.02;;;1.02;;
5807;SDS011;2930;42.678;23.312;2023-07-31T11:45:57;1.17;;;1.05;;
5807;SDS011;2930;42.678;23.312;2023-07-31T11:48:26;1.08;;;1.08;;
5807;SDS011;2930;42.678;23.312;2023-07-31T11:50:55;1.00;;;1.00;;
5807;SDS011;2930;42.678;23.312;2023-07-31T11:53:41;0.75;;;0.75;;
5807;SDS011;2930;42.678;23.312;2023-07-31T11:56:07;0.80;;;0.80;;
5807;SDS011;2930;42.678;23.312;2023-07-31T11:58:36;1.67;;;1.08;;
5807;SDS011;2930;42.678;23.312;2023-07-31T12:01:03;0.90;;;0.90;;
5807;SDS011;2930;42.678;23.312;2023-07-31T12:03:29;2.75;;;1.10;;
5807;SDS011;2930;42.678;23.312;2023-07-31T12:05:57;1.30;;;1.20;;
5807;SDS011;2930;42.678;23.312;2023-07-31T12:08:24;1.30;;;1.30;;
5807;SDS011;2930;42.678;23.312;2023-07-31T12:10:51;1.85;;;1.45;;
5807;SDS011;2930;42.678;23.312;2023-07-31T12:13:24;1.80;;;1.80;;
5807;SDS011;2930;42.678;23.312;2023-07-31T12:15:54;1.77;;;1.77;;
5807;SDS011;2930;42.678;23.312;2023-07-31T12:18:22;2.15;;;2.00;;
5807;SDS011;2930;42.678;23.312;2023-07-31T12:20:55;1.63;;;1.63;;
5807;SDS011;2930;42.678;23.312;2023-07-31T12:23:26;2.08;;;2.08;;
5807;SDS011;2930;42.678;23.312;2023-07-31T12:26:00;4.22;;;2.55;;
5807;SDS011;2930;42.678;23.312;2023-07-31T12:28:38;2.60;;;2.60;;
5807;SDS011;2930;42.678;23.312;2023-07-31T12:31:09;2.30;;;2.30;;
5807;SDS011;2930;42.678;23.312;2023-07-31T12:33:37;2.45;;;2.35;;
5807;SDS011;2930;42.678;23.312;2023-07-31T12:36:04;2.35;;;2.15;;
5807;SDS011;2930;42.678;23.312;2023-07-31T12:38:42;1.80;;;1.80;;
5807;SDS011;2930;42.678;23.312;2023-07-31T12:41:08;2.22;;;2.00;;
5807;SDS011;2930;42.678;23.312;2023-07-31T12:43:35;1.98;;;1.92;;
5807;SDS011;2930;42.678;23.312;2023-07-31T12:46:01;1.95;;;1.88;;
5807;SDS011;2930;42.678;23.312;2023-07-31T12:48:27;2.10;;;2.10;;
5807;SDS011;2930;42.678;23.312;2023-07-31T12:50:53;2.50;;;2.50;;
5807;SDS011;2930;42.678;23.312;2023-07-31T12:53:18;2.65;;;2.65;;
5807;SDS011;2930;42.678;23.312;2023-07-31T12:55:44;3.33;;;3.00;;
5807;SDS011;2930;42.678;23.312;2023-07-31T12:58:10;3.10;;;3.00;;
5807;SDS011;2930;42.678;23.312;2023-07-31T13:00:36;2.67;;;2.58;;
5807;SDS011;2930;42.678;23.312;2023-07-31T13:03:01;2.38;;;2.38;;
5807;SDS011;2930;42.678;23.312;2023-07-31T13:06:01;2.92;;;2.83;;
5807;SDS011;2930;42.678;23.312;2023-07-31T13:08:28;3.28;;;3.17;;
5807;SDS011;2930;42.678;23.312;2023-07-31T13:10:53;2.50;;;2.50;;
5807;SDS011;2930;42.678;23.312;2023-07-31T13:13:19;3.05;;;2.95;;
5807;SDS011;2930;42.678;23.312;2023-07-31T13:16:01;2.67;;;2.67;;
5807;SDS011;2930;42.678;23.312;2023-07-31T13:18:26;2.80;;;2.80;;
5807;SDS011;2930;42.678;23.312;2023-07-31T13:20:52;2.92;;;2.83;;
5807;SDS011;2930;42.678;23.312;2023-07-31T13:23:17;4.10;;;2.80;;
5807;SDS011;2930;42.678;23.312;2023-07-31T13:25:43;4.90;;;2.28;;
5807;SDS011;2930;42.678;23.312;2023-07-31T13:28:09;2.17;;;2.08;;
5807;SDS011;2930;42.678;23.312;2023-07-31T13:30:35;2.13;;;2.10;;
5807;SDS011;2930;42.678;23.312;2023-07-31T13:33:00;2.38;;;2.38;;
5807;SDS011;2930;42.678;23.312;2023-07-31T13:35:26;2.20;;;2.00;;
5807;SDS011;2930;42.678;23.312;2023-07-31T13:37:52;1.73;;;1.73;;
5807;SDS011;2930;42.678;23.312;2023-07-31T13:40:17;2.05;;;2.05;;
5807;SDS011;2930;42.678;23.312;2023-07-31T13:42:43;2.20;;;2.00;;
5807;SDS011;2930;42.678;23.312;2023-07-31T13:45:08;2.13;;;2.03;;
5807;SDS011;2930;42.678;23.312;2023-07-31T13:47:34;2.05;;;2.05;;
5807;SDS011;2930;42.678;23.312;2023-07-31T13:50:02;2.05;;;2.05;;
5807;SDS011;2930;42.678;23.312;2023-07-31T13:52:27;1.90;;;1.88;;
5807;SDS011;2930;42.678;23.312;2023-07-31T13:54:53;2.22;;;2.20;;
5807;SDS011;2930;42.678;23.312;2023-07-31T13:57:19;1.73;;;1.73;;
5807;SDS011;2930;42.678;23.312;2023-07-31T13:59:44;1.85;;;1.80;;
5807;SDS011;2930;42.678;23.312;2023-07-31T14:02:10;1.95;;;1.85;;
5807;SDS011;2930;42.678;23.312;2023-07-31T14:04:36;1.52;;;1.52;;
5807;SDS011;2930;42.678;23.312;2023-07-31T14:07:01;2.30;;;2.13;;
5807;SDS011;2930;42.678;23.312;2023-07-31T14:09:28;1.58;;;1.58;;
5807;SDS011;2930;42.678;23.312;2023-07-31T14:11:53;1.67;;;1.67;;
5807;SDS011;2930;42.678;23.312;2023-07-31T14:14:19;2.17;;;2.08;;
5807;SDS011;2930;42.678;23.312;2023-07-31T14:16:45;1.65;;;1.65;;
5807;SDS011;2930;42.678;23.312;2023-07-31T14:19:10;1.73;;;1.73;;
5807;SDS011;2930;42.678;23.312;2023-07-31T14:21:36;2.25;;;2.25;;
5807;SDS011;2930;42.678;23.312;2023-07-31T14:24:02;2.05;;;2.05;;
5807;SDS011;2930;42.678;23.312;2023-07-31T14:26:28;2.05;;;2.05;;
5807;SDS011;2930;42.678;23.312;2023-07-31T14:28:53;2.00;;;2.00;;
5807;SDS011;2930;42.678;23.312;2023-07-31T14:31:19;1.95;;;1.95;;
5807;SDS011;2930;42.678;23.312;2023-07-31T14:33:44;1.90;;;1.90;;
5807;SDS011;2930;42.678;23.312;2023-07-31T14:36:10;2.55;;;1.90;;
5807;SDS011;2930;42.678;23.312;2023-07-31T14:38:36;2.17;;;2.08;;
5807;SDS011;2930;42.678;23.312;2023-07-31T14:41:01;2.67;;;2.10;;
5807;SDS011;2930;42.678;23.312;2023-07-31T14:43:27;1.60;;;1.60;;
5807;SDS011;2930;42.678;23.312;2023-07-31T14:45:53;1.52;;;1.48;;
5807;SDS011;2930;42.678;23.312;2023-07-31T14:48:21;2.00;;;2.00;;
5807;SDS011;2930;42.678;23.312;2023-07-31T14:50:46;2.08;;;1.88;;
5807;SDS011;2930;42.678;23.312;2023-07-31T14:53:12;2.33;;;2.22;;
5807;SDS011;2930;42.678;23.312;2023-07-31T14:55:37;1.70;;;1.70;;
5807;SDS011;2930;42.678;23.312;2023-07-31T14:58:03;1.73;;;1.60;;
5807;SDS011;2930;42.678;23.312;2023-07-31T15:00:29;1.58;;;1.58;;
5807;SDS011;2930;42.678;23.312;2023-07-31T15:02:55;1.65;;;1.65;;
5807;SDS011;2930;42.678;23.312;2023-07-31T15:05:20;1.38;;;1.38;;
5807;SDS011;2930;42.678;23.312;2023-07-31T15:07:46;1.90;;;1.73;;
5807;SDS011;2930;42.678;23.312;2023-07-31T15:10:12;1.40;;;1.40;;
5807;SDS011;2930;42.678;23.312;2023-07-31T15:12:39;1.50;;;1.40;;
5807;SDS011;2930;42.678;23.312;2023-07-31T15:15:05;1.50;;;1.20;;
5807;SDS011;2930;42.678;23.312;2023-07-31T15:17:31;1.30;;;1.30;;
5807;SDS011;2930;42.678;23.312;2023-07-31T15:19:57;1.35;;;1.35;;
5807;SDS011;2930;42.678;23.312;2023-07-31T15:22:23;1.20;;;1.20;;
5807;SDS011;2930;42.678;23.312;2023-07-31T15:24:49;1.10;;;1.10;;
5807;SDS011;2930;42.678;23.312;2023-07-31T15:27:15;3.47;;;1.20;;
5807;SDS011;2930;42.678;23.312;2023-07-31T15:29:43;2.92;;;1.20;;
5807;SDS011;2930;42.678;23.312;2023-07-31T15:32:09;1.15;;;1.15;;
5807;SDS011;2930;42.678;23.312;2023-07-31T15:34:35;1.10;;;1.10;;
5807;SDS011;2930;42.678;23.312;2023-07-31T15:37:00;0.90;;;0.90;;
5807;SDS011;2930;42.678;23.312;2023-07-31T15:39:26;0.82;;;0.82;;
5807;SDS011;2930;42.678;23.312;2023-07-31T15:41:52;1.02;;;1.02;;
5807;SDS011;2930;42.678;23.312;2023-07-31T15:44:17;1.27;;;1.20;;
5807;SDS011;2930;42.678;23.312;2023-07-31T15:46:43;0.90;;;0.90;;
5807;SDS011;2930;42.678;23.312;2023-07-31T15:49:09;0.90;;;0.90;;
5807;SDS011;2930;42.678;23.312;2023-07-31T15:54:03;0.90;;;0.90;;
5807;SDS011;2930;42.678;23.312;2023-07-31T15:56:29;1.00;;;1.00;;
5807;SDS011;2930;42.678;23.312;2023-07-31T15:58:54;0.80;;;0.80;;
5807;SDS011;2930;42.678;23.312;2023-07-31T16:01:45;1.42;;;0.88;;
5807;SDS011;2930;42.678;23.312;2023-07-31T16:04:11;0.88;;;0.88;;
5807;SDS011;2930;42.678;23.312;2023-07-31T16:06:36;1.00;;;1.00;;
5807;SDS011;2930;42.678;23.312;2023-07-31T16:09:02;0.88;;;0.88;;
5807;SDS011;2930;42.678;23.312;2023-07-31T16:11:28;3.03;;;0.70;;
5807;SDS011;2930;42.678;23.312;2023-07-31T16:13:53;1.00;;;1.00;;
5807;SDS011;2930;42.678;23.312;2023-07-31T16:16:19;0.73;;;0.73;;
5807;SDS011;2930;42.678;23.312;2023-07-31T16:18:46;3.42;;;0.70;;
5807;SDS011;2930;42.678;23.312;2023-07-31T16:21:11;0.80;;;0.80;;
5807;SDS011;2930;42.678;23.312;2023-07-31T16:23:37;0.85;;;0.65;;
5807;SDS011;2930;42.678;23.312;2023-07-31T16:26:03;1.88;;;0.75;;
5807;SDS011;2930;42.678;23.312;2023-07-31T16:28:29;0.70;;;0.70;;
5807;SDS011;2930;42.678;23.312;2023-07-31T16:30:54;0.88;;;0.60;;
5807;SDS011;2930;42.678;23.312;2023-07-31T16:33:20;0.98;;;0.98;;
5807;SDS011;2930;42.678;23.312;2023-07-31T16:35:46;1.10;;;0.70;;
5807;SDS011;2930;42.678;23.312;2023-07-31T16:38:12;1.75;;;0.80;;
5807;SDS011;2930;42.678;23.312;2023-07-31T16:40:38;0.73;;;0.73;;
5807;SDS011;2930;42.678;23.312;2023-07-31T16:43:03;0.98;;;0.98;;
5807;SDS011;2930;42.678;23.312;2023-07-31T16:45:29;0.52;;;0.52;;
5807;SDS011;2930;42.678;23.312;2023-07-31T16:47:54;0.57;;;0.57;;
5807;SDS011;2930;42.678;23.312;2023-07-31T16:50:20;1.27;;;0.60;;
5807;SDS011;2930;42.678;23.312;2023-07-31T16:52:46;0.52;;;0.52;;
5807;SDS011;2930;42.678;23.312;2023-07-31T16:55:12;0.90;;;0.90;;
5807;SDS011;2930;42.678;23.312;2023-07-31T16:57:37;0.60;;;0.60;;
5807;SDS011;2930;42.678;23.312;2023-07-31T17:00:03;1.48;;;0.80;;
5807;SDS011;2930;42.678;23.312;2023-07-31T17:02:29;0.52;;;0.52;;
5807;SDS011;2930;42.678;23.312;2023-07-31T17:04:55;0.70;;;0.70;;
5807;SDS011;2930;42.678;23.312;2023-07-31T17:07:20;0.70;;;0.70;;
5807;SDS011;2930;42.678;23.312;2023-07-31T17:11:08;0.82;;;0.82;;
5807;SDS011;2930;42.678;23.312;2023-07-31T17:13:33;0.70;;;0.70;;
5807;SDS011;2930;42.678;23.312;2023-07-31T17:15:59;0.80;;;0.80;;
5807;SDS011;2930;42.678;23.312;2023-07-31T17:18:25;0.60;;;0.60;;
5807;SDS011;2930;42.678;23.312;2023-07-31T17:20:50;0.80;;;0.80;;
5807;SDS011;2930;42.678;23.312;2023-07-31T17:23:16;0.60;;;0.60;;
5807;SDS011;2930;42.678;23.312;2023-07-31T17:25:42;0.77;;;0.77;;
5807;SDS011;2930;42.678;23.312;2023-07-31T17:28:07;0.98;;;0.85;;
5807;SDS011;2930;42.678;23.312;2023-07-31T17:30:33;0.70;;;0.70;;
5807;SDS011;2930;42.678;23.312;2023-07-31T17:32:59;0.63;;;0.63;;
5807;SDS011;2930;42.678;23.312;2023-07-31T17:35:24;0.90;;;0.90;;
5807;SDS011;2930;42.678;23.312;2023-07-31T17:37:50;0.65;;;0.65;;
5807;SDS011;2930;42.678;23.312;2023-07-31T17:40:16;0.70;;;0.70;;
5807;SDS011;2930;42.678;23.312;2023-07-31T17:42:41;0.70;;;0.70;;
5807;SDS011;2930;42.678;23.312;2023-07-31T17:45:07;0.70;;;0.70;;
5807;SDS011;2930;42.678;23.312;2023-07-31T17:47:33;1.75;;;0.85;;
5807;SDS011;2930;42.678;23.312;2023-07-31T17:49:58;0.85;;;0.85;;
5807;SDS011;2930;42.678;23.312;2023-07-31T17:52:24;3.05;;;0.80;;
5807;SDS011;2930;42.678;23.312;2023-07-31T17:54:50;0.73;;;0.73;;
5807;SDS011;2930;42.678;23.312;2023-07-31T17:57:19;2.15;;;0.80;;
5807;SDS011;2930;42.678;23.312;2023-07-31T17:59:45;1.58;;;0.85;;
5807;SDS011;2930;42.678;23.312;2023-07-31T18:02:12;2.63;;;1.10;;
5807;SDS011;2930;42.678;23.312;2023-07-31T18:06:46;0.80;;;0.80;;
5807;SDS011;2930;42.678;23.312;2023-07-31T18:09:12;0.70;;;0.70;;
5807;SDS011;2930;42.678;23.312;2023-07-31T18:11:38;0.80;;;0.80;;
5807;SDS011;2930;42.678;23.312;2023-07-31T18:14:03;1.45;;;1.35;;
5807;SDS011;2930;42.678;23.312;2023-07-31T18:16:29;0.70;;;0.70;;
5807;SDS011;2930;42.678;23.312;2023-07-31T18:18:54;0.70;;;0.70;;
5807;SDS011;2930;42.678;23.312;2023-07-31T18:21:20;1.75;;;0.90;;
5807;SDS011;2930;42.678;23.312;2023-07-31T18:23:46;0.90;;;0.90;;
5807;SDS011;2930;42.678;23.312;2023-07-31T18:26:12;1.00;;;1.00;;
5807;SDS011;2930;42.678;23.312;2023-07-31T18:28:38;0.93;;;0.93;;
5807;SDS011;2930;42.678;23.312;2023-07-31T18:31:03;0.80;;;0.80;;
5807;SDS011;2930;42.678;23.312;2023-07-31T18:33:30;1.48;;;0.93;;
5807;SDS011;2930;42.678;23.312;2023-07-31T18:35:56;1.15;;;0.82;;
5807;SDS011;2930;42.678;23.312;2023-07-31T18:38:22;0.98;;;0.98;;
5807;SDS011;2930;42.678;23.312;2023-07-31T18:40:47;1.65;;;0.90;;
5807;SDS011;2930;42.678;23.312;2023-07-31T18:43:13;2.75;;;1.10;;
5807;SDS011;2930;42.678;23.312;2023-07-31T18:45:39;1.05;;;1.00;;
5807;SDS011;2930;42.678;23.312;2023-07-31T18:48:04;0.73;;;0.65;;
5807;SDS011;2930;42.678;23.312;2023-07-31T18:50:30;1.08;;;1.08;;
5807;SDS011;2930;42.678;23.312;2023-07-31T18:52:56;1.52;;;1.42;;
5807;SDS011;2930;42.678;23.312;2023-07-31T18:55:22;1.17;;;1.10;;
5807;SDS011;2930;42.678;23.312;2023-07-31T18:57:50;1.40;;;1.20;;
5807;SDS011;2930;42.678;23.312;2023-07-31T19:00:15;1.38;;;1.38;;
5807;SDS011;2930;42.678;23.312;2023-07-31T19:02:41;5.90;;;1.40;;
5807;SDS011;2930;42.678;23.312;2023-07-31T19:05:07;1.23;;;1.23;;
5807;SDS011;2930;42.678;23.312;2023-07-31T19:07:33;0.90;;;0.90;;
5807;SDS011;2930;42.678;23.312;2023-07-31T19:09:58;1.13;;;0.98;;
5807;SDS011;2930;42.678;23.312;2023-07-31T19:12:24;1.17;;;1.17;;
5807;SDS011;2930;42.678;23.312;2023-07-31T19:14:50;0.90;;;0.90;;
5807;SDS011;2930;42.678;23.312;2023-07-31T19:17:16;1.00;;;1.00;;
5807;SDS011;2930;42.678;23.312;2023-07-31T19:19:42;1.00;;;1.00;;
5807;SDS011;2930;42.678;23.312;2023-07-31T19:22:08;1.00;;;1.00;;
5807;SDS011;2930;42.678;23.312;2023-07-31T19:24:34;1.50;;;1.40;;
5807;SDS011;2930;42.678;23.312;2023-07-31T19:27:00;1.05;;;0.95;;
5807;SDS011;2930;42.678;23.312;2023-07-31T19:29:27;1.23;;;1.13;;
5807;SDS011;2930;42.678;23.312;2023-07-31T19:31:53;1.27;;;1.08;;
5807;SDS011;2930;42.678;23.312;2023-07-31T19:34:18;1.30;;;1.20;;
5807;SDS011;2930;42.678;23.312;2023-07-31T19:36:44;1.45;;;1.45;;
5807;SDS011;2930;42.678;23.312;2023-07-31T19:39:13;2.08;;;0.98;;
5807;SDS011;2930;42.678;23.312;2023-07-31T19:41:39;1.05;;;1.05;;
5807;SDS011;2930;42.678;23.312;2023-07-31T19:44:07;3.92;;;1.23;;
5807;SDS011;2930;42.678;23.312;2023-07-31T19:46:33;1.13;;;1.13;;
5807;SDS011;2930;42.678;23.312;2023-07-31T19:49:00;1.17;;;1.17;;
5807;SDS011;2930;42.678;23.312;2023-07-31T19:51:26;0.98;;;0.88;;
5807;SDS011;2930;42.678;23.312;2023-07-31T19:53:51;1.27;;;1.17;;
5807;SDS011;2930;42.678;23.312;2023-07-31T19:56:17;1.83;;;1.10;;
5807;SDS011;2930;42.678;23.312;2023-07-31T19:58:43;0.73;;;0.73;;
5807;SDS011;2930;42.678;23.312;2023-07-31T20:01:09;1.67;;;1.00;;
5807;SDS011;2930;42.678;23.312;2023-07-31T20:03:35;0.93;;;0.93;;
5807;SDS011;2930;42.678;23.312;2023-07-31T20:06:01;0.70;;;0.70;;
5807;SDS011;2930;42.678;23.312;2023-07-31T20:08:27;0.77;;;0.77;;
5807;SDS011;2930;42.678;23.312;2023-07-31T20:10:52;0.60;;;0.60;;
5807;SDS011;2930;42.678;23.312;2023-07-31T20:13:18;0.70;;;0.70;;
5807;SDS011;2930;42.678;23.312;2023-07-31T20:15:44;1.08;;;0.73;;
5807;SDS011;2930;42.678;23.312;2023-07-31T20:18:10;1.02;;;1.02;;
5807;SDS011;2930;42.678;23.312;2023-07-31T20:20:36;0.82;;;0.82;;
5807;SDS011;2930;42.678;23.312;2023-07-31T20:23:01;0.82;;;0.82;;
5807;SDS011;2930;42.678;23.312;2023-07-31T20:25:27;1.00;;;1.00;;
5807;SDS011;2930;42.678;23.312;2023-07-31T20:27:53;1.95;;;0.85;;
5807;SDS011;2930;42.678;23.312;2023-07-31T20:30:18;0.70;;;0.70;;
5807;SDS011;2930;42.678;23.312;2023-07-31T20:32:44;1.17;;;1.00;;
5807;SDS011;2930;42.678;23.312;2023-07-31T20:35:10;0.65;;;0.65;;
5807;SDS011;2930;42.678;23.312;2023-07-31T20:37:35;0.80;;;0.80;;
5807;SDS011;2930;42.678;23.312;2023-07-31T20:40:04;0.70;;;0.70;;
5807;SDS011;2930;42.678;23.312;2023-07-31T20:42:31;0.50;;;0.50;;
5807;SDS011;2930;42.678;23.312;2023-07-31T20:44:57;0.82;;;0.77;;
5807;SDS011;2930;42.678;23.312;2023-07-31T20:50:09;2.20;;;0.70;;
5807;SDS011;2930;42.678;23.312;2023-07-31T20:52:35;0.80;;;0.80;;
5807;SDS011;2930;42.678;23.312;2023-07-31T20:55:00;0.73;;;0.73;;
5807;SDS011;2930;42.678;23.312;2023-07-31T20:57:26;0.60;;;0.60;;
5807;SDS011;2930;42.678;23.312;2023-07-31T20:59:53;0.63;;;0.63;;
5807;SDS011;2930;42.678;23.312;2023-07-31T21:02:18;0.70;;;0.70;;
5807;SDS011;2930;42.678;23.312;2023-07-31T21:04:44;0.52;;;0.52;;
5807;SDS011;2930;42.678;23.312;2023-07-31T21:07:10;0.55;;;0.55;;
5807;SDS011;2930;42.678;23.312;2023-07-31T21:09:39;0.50;;;0.50;;
5807;SDS011;2930;42.678;23.312;2023-07-31T21:12:08;0.50;;;0.50;;
5807;SDS011;2930;42.678;23.312;2023-07-31T21:14:35;0.70;;;0.70;;
5807;SDS011;2930;42.678;23.312;2023-07-31T21:17:01;0.50;;;0.50;;
5807;SDS011;2930;42.678;23.312;2023-07-31T21:19:27;0.68;;;0.68;;
5807;SDS011;2930;42.678;23.312;2023-07-31T21:21:52;0.77;;;0.77;;
5807;SDS011;2930;42.678;23.312;2023-07-31T21:24:18;0.60;;;0.60;;
5807;SDS011;2930;42.678;23.312;2023-07-31T21:26:44;0.75;;;0.75;;
5807;SDS011;2930;42.678;23.312;2023-07-31T21:29:09;0.90;;;0.73;;
5807;SDS011;2930;42.678;23.312;2023-07-31T21:31:35;0.60;;;0.60;;
5807;SDS011;2930;42.678;23.312;2023-07-31T21:34:01;0.60;;;0.60;;
5807;SDS011;2930;42.678;23.312;2023-07-31T21:36:27;0.70;;;0.70;;
5807;SDS011;2930;42.678;23.312;2023-07-31T21:38:53;0.50;;;0.50;;
5807;SDS011;2930;42.678;23.312;2023-07-31T21:41:19;0.65;;;0.65;;
5807;SDS011;2930;42.678;23.312;2023-07-31T21:43:44;0.75;;;0.75;;
5807;SDS011;2930;42.678;23.312;2023-07-31T21:46:10;0.45;;;0.45;;
5807;SDS011;2930;42.678;23.312;2023-07-31T21:48:36;0.60;;;0.60;;
5807;SDS011;2930;42.678;23.312;2023-07-31T21:51:24;0.80;;;0.80;;
5807;SDS011;2930;42.678;23.312;2023-07-31T21:53:50;0.57;;;0.57;;
5807;SDS011;2930;42.678;23.312;2023-07-31T21:56:16;0.55;;;0.55;;
5807;SDS011;2930;42.678;23.312;2023-07-31T21:58:43;0.70;;;0.70;;
5807;SDS011;2930;42.678;23.312;2023-07-31T22:01:08;0.77;;;0.77;;
5807;SDS011;2930;42.678;23.312;2023-07-31T22:03:34;0.68;;;0.68;;
5807;SDS011;2930;42.678;23.312;2023-07-31T22:06:01;0.77;;;0.77;;
5807;SDS011;2930;42.678;23.312;2023-07-31T22:08:27;4.72;;;0.70;;
5807;SDS011;2930;42.678;23.312;2023-07-31T22:10:53;0.60;;;0.60;;
5807;SDS011;2930;42.678;23.312;2023-07-31T22:13:19;0.80;;;0.80;;
5807;SDS011;2930;42.678;23.312;2023-07-31T22:15:45;0.70;;;0.70;;
5807;SDS011;2930;42.678;23.312;2023-07-31T22:18:13;0.50;;;0.50;;
5807;SDS011;2930;42.678;23.312;2023-07-31T22:20:39;0.80;;;0.80;;
5807;SDS011;2930;42.678;23.312;2023-07-31T22:23:04;0.70;;;0.70;;
5807;SDS011;2930;42.678;23.312;2023-07-31T22:25:30;0.60;;;0.60;;
5807;SDS011;2930;42.678;23.312;2023-07-31T22:27:56;2.55;;;0.65;;
5807;SDS011;2930;42.678;23.312;2023-07-31T22:30:22;0.55;;;0.55;;
5807;SDS011;2930;42.678;23.312;2023-07-31T22:32:47;0.50;;;0.50;;
5807;SDS011;2930;42.678;23.312;2023-07-31T22:35:13;0.70;;;0.70;;
5807;SDS011;2930;42.678;23.312;2023-07-31T22:37:39;0.65;;;0.65;;
5807;SDS011;2930;42.678;23.312;2023-07-31T22:40:05;0.65;;;0.60;;
5807;SDS011;2930;42.678;23.312;2023-07-31T22:42:31;0.50;;;0.50;;
5807;SDS011;2930;42.678;23.312;2023-07-31T22:44:58;0.70;;;0.70;;
5807;SDS011;2930;42.678;23.312;2023-07-31T22:47:24;0.50;;;0.50;;
5807;SDS011;2930;42.678;23.312;2023-07-31T22:49:49;3.72;;;0.60;;
5807;SDS011;2930;42.678;23.312;2023-07-31T22:52:15;0.52;;;0.50;;
5807;SDS011;2930;42.678;23.312;2023-07-31T22:54:41;0.75;;;0.75;;
5807;SDS011;2930;42.678;23.312;2023-07-31T22:57:06;0.60;;;0.60;;
5807;SDS011;2930;42.678;23.312;2023-07-31T22:59:32;0.50;;;0.50;;
5807;SDS011;2930;42.678;23.312;2023-07-31T23:01:58;0.43;;;0.43;;
5807;SDS011;2930;42.678;23.312;2023-07-31T23:04:24;0.65;;;0.65;;
5807;SDS011;2930;42.678;23.312;2023-07-31T23:06:49;0.60;;;0.60;;
5807;SDS011;2930;42.678;23.312;2023-07-31T23:09:17;0.80;;;0.80;;
5807;SDS011;2930;42.678;23.312;2023-07-31T23:11:42;0.70;;;0.70;;
5807;SDS011;2930;42.678;23.312;2023-07-31T23:14:08;0.60;;;0.60;;
5807;SDS011;2930;42.678;23.312;2023-07-31T23:16:34;0.60;;;0.60;;